PWSweather.com
Personal Weather Stations
Station Observations
WD02334
France, RosnySousBoisFR 93110

FranceRosnySousBoisFR 93110

Lat: 48.875661, Lon: 2.485932

Elevation: 88

Station Type: WMR100/OREGON SCIENTIFIC

http://boulletpascal.fr/index

Latest ConditionsUpdated 6:30:15 PM GMT+01:01 Wednesday, Feb 10, 2016
Currently Today's Max Today's Min Today's Average
Temperature 44.4°F6.9°C 49.5°F9.7°C 37.2°F2.9°C 40.5°F4.7°C
Dew Point 34.5°F1.4°C 39.3°F4.1°C 31.9°F-0.1°C 33.7°F0.9°C
Winds 2.3 mph NW3.7 kmh NW 6.9 mph NE11.1 kmh NE - 3.2 mph 5.1 kmh
Wind Gusts 3.5 mph5.6 kmh 10.4 mph16.7 kmh - -
Humidity 68% 85% 53% 77%
Pressure 29.59 in1002.0 mb 29.59 in1002.0 mb 29.41 in995.9 mb -
Hour Temp Dew Point Humidity Winds Wind Gusts Pressure Precip Precip Rate Daily Precip Total
06:30 PM 44.4°F6.9°C 34.5°F1.4°C 68% 2.3 mph NW3.7 kmh NW 3.5 mph5.6 kmh 29.59 in1002.0 mb - 0.00 in0.0 mm 0.00 in0.0 mm
06:10 PM 44.3°F6.8°C 34.0°F1.1°C 67% 2.3 mph NW3.7 kmh NW 3.5 mph5.6 kmh 29.59 in1002.0 mb - 0.00 in0.0 mm 0.00 in0.0 mm
03:10 PM 48.6°F9.2°C 32.7°F0.4°C 54% 3.5 mph NW5.6 kmh NW 4.6 mph7.4 kmh 29.53 in1000.0 mb - 0.00 in0.0 mm 0.00 in0.0 mm
02:50 PM 48.4°F9.1°C 32.5°F0.3°C 54% 2.3 mph N3.7 kmh N 3.5 mph5.6 kmh 29.53 in1000.0 mb - 0.00 in0.0 mm 0.00 in0.0 mm
02:40 PM 48.3°F9.1°C 31.9°F-0.1°C 53% 3.5 mph WNW5.6 kmh WNW 5.8 mph9.3 kmh 29.53 in1000.0 mb - 0.00 in0.0 mm 0.00 in0.0 mm
02:30 PM 48.7°F9.3°C 32.4°F0.2°C 53% 2.3 mph SW3.7 kmh SW 4.6 mph7.4 kmh 29.53 in1000.0 mb - 0.00 in0.0 mm 0.00 in0.0 mm
11:10 AM 49.5°F9.7°C 39.3°F4.1°C 68% 2.3 mph E3.7 kmh E 5.8 mph9.3 kmh 29.53 in1000.0 mb - 0.00 in0.0 mm 0.00 in0.0 mm
10:50 AM 48.5°F9.2°C 38.8°F3.8°C 69% 3.5 mph WSW5.6 kmh WSW 3.5 mph5.6 kmh 29.53 in1000.0 mb - 0.00 in0.0 mm 0.00 in0.0 mm
08:50 AM 39.6°F4.2°C 33.6°F0.9°C 79% 4.6 mph ENE7.4 kmh ENE 5.8 mph9.3 kmh 29.47 in998.0 mb - 0.00 in0.0 mm 0.00 in0.0 mm
07:50 AM 38.4°F3.6°C 33.4°F0.8°C 82% 3.5 mph NE5.6 kmh NE 5.8 mph9.3 kmh 29.47 in998.0 mb - 0.00 in0.0 mm 0.00 in0.0 mm
07:10 AM 39.0°F3.9°C 33.1°F0.6°C 79% 2.3 mph E3.7 kmh E 5.8 mph9.3 kmh 29.47 in998.0 mb - 0.00 in0.0 mm 0.00 in0.0 mm
06:50 AM 39.2°F4.0°C 32.9°F0.5°C 78% 4.6 mph NW7.4 kmh NW 5.8 mph9.3 kmh 29.44 in997.0 mb - 0.00 in0.0 mm 0.00 in0.0 mm
06:40 AM 39.3°F4.1°C 33.0°F0.6°C 78% 3.5 mph NE5.6 kmh NE 5.8 mph9.3 kmh 29.44 in997.0 mb - 0.00 in0.0 mm 0.00 in0.0 mm
06:30 AM 39.4°F4.1°C 33.1°F0.6°C 78% 3.5 mph NNW5.6 kmh NNW 5.8 mph9.3 kmh 29.44 in997.0 mb - 0.00 in0.0 mm 0.00 in0.0 mm
06:20 AM 39.4°F4.1°C 32.8°F0.4°C 77% 2.3 mph NW3.7 kmh NW 5.8 mph9.3 kmh 29.44 in997.0 mb - 0.00 in0.0 mm 0.00 in0.0 mm
06:10 AM 39.4°F4.1°C 33.1°F0.6°C 78% 3.5 mph N5.6 kmh N 5.8 mph9.3 kmh 29.44 in997.0 mb - 0.00 in0.0 mm 0.00 in0.0 mm
05:50 AM 39.4°F4.1°C 33.7°F0.9°C 80% 2.3 mph WNW3.7 kmh WNW 3.5 mph5.6 kmh 29.44 in997.0 mb - 0.00 in0.0 mm 0.00 in0.0 mm
05:40 AM 39.0°F3.9°C 33.7°F0.9°C 81% 3.5 mph WNW5.6 kmh WNW 5.8 mph9.3 kmh 29.44 in997.0 mb - 0.00 in0.0 mm 0.00 in0.0 mm
05:30 AM 38.8°F3.8°C 33.8°F1.0°C 82% 1.2 mph NW1.9 kmh NW 5.8 mph9.3 kmh 29.44 in997.0 mb - 0.00 in0.0 mm 0.00 in0.0 mm
04:50 AM 38.2°F3.4°C 33.8°F1.0°C 84% 5.8 mph NE9.3 kmh NE 9.2 mph14.8 kmh 29.47 in998.0 mb - 0.00 in0.0 mm 0.00 in0.0 mm
04:40 AM 38.1°F3.4°C 34.0°F1.1°C 85% 2.3 mph NNW3.7 kmh NNW 10.4 mph16.7 kmh 29.47 in998.0 mb - 0.00 in0.0 mm 0.00 in0.0 mm
04:20 AM 37.9°F3.3°C 33.8°F1.0°C 85% 4.6 mph ESE7.4 kmh ESE 5.8 mph9.3 kmh 29.47 in998.0 mb - 0.00 in0.0 mm 0.00 in0.0 mm
04:10 AM 37.7°F3.2°C 33.6°F0.9°C 85% 3.5 mph ENE5.6 kmh ENE 5.8 mph9.3 kmh 29.47 in998.0 mb - 0.00 in0.0 mm 0.00 in0.0 mm
03:50 AM 37.4°F3.0°C 33.3°F0.7°C 85% 3.5 mph WSW5.6 kmh WSW 5.8 mph9.3 kmh 29.47 in998.0 mb - 0.00 in0.0 mm 0.00 in0.0 mm
03:20 AM 37.4°F3.0°C 33.3°F0.7°C 85% 6.9 mph NE11.1 kmh NE 10.4 mph16.7 kmh 29.47 in998.0 mb - 0.00 in0.0 mm 0.00 in0.0 mm
02:30 AM 37.2°F2.9°C 33.1°F0.6°C 85% 4.6 mph NNE7.4 kmh NNE 4.6 mph7.4 kmh 29.44 in997.0 mb - 0.00 in0.0 mm 0.00 in0.0 mm
02:20 AM 37.4°F3.0°C 33.3°F0.7°C 85% 3.5 mph E5.6 kmh E 5.8 mph9.3 kmh 29.44 in997.0 mb - 0.00 in0.0 mm 0.00 in0.0 mm
01:50 AM 37.7°F3.2°C 33.0°F0.6°C 83% 3.5 mph ENE5.6 kmh ENE 6.9 mph11.1 kmh 29.44 in997.0 mb - 0.00 in0.0 mm 0.00 in0.0 mm
01:40 AM 37.7°F3.2°C 32.7°F0.4°C 82% 3.5 mph NE5.6 kmh NE 3.5 mph5.6 kmh 29.44 in997.0 mb - 0.00 in0.0 mm 0.00 in0.0 mm
01:30 AM 37.9°F3.3°C 32.9°F0.5°C 82% 3.5 mph SW5.6 kmh SW 3.5 mph5.6 kmh 29.44 in997.0 mb - 0.00 in0.0 mm 0.00 in0.0 mm
01:10 AM 38.3°F3.5°C 33.6°F0.9°C 83% 2.3 mph WNW3.7 kmh WNW 4.6 mph7.4 kmh 29.44 in997.0 mb - 0.00 in0.0 mm 0.00 in0.0 mm
12:50 AM 38.5°F3.6°C 33.8°F1.0°C 83% 2.3 mph N3.7 kmh N 3.5 mph5.6 kmh 29.44 in997.0 mb - 0.00 in0.0 mm 0.00 in0.0 mm
12:40 AM 38.7°F3.7°C 34.2°F1.2°C 84% 3.5 mph S5.6 kmh S 5.8 mph9.3 kmh 29.44 in997.0 mb - 0.00 in0.0 mm 0.00 in0.0 mm
12:30 AM 38.7°F3.7°C 34.2°F1.2°C 84% 1.2 mph SE1.9 kmh SE 2.3 mph3.7 kmh 29.41 in995.9 mb - 0.00 in0.0 mm 0.00 in0.0 mm
12:20 AM 38.8°F3.8°C 34.7°F1.5°C 85% 1.2 mph WNW1.9 kmh WNW 4.6 mph7.4 kmh 29.41 in995.9 mb - 0.00 in0.0 mm 0.00 in0.0 mm
12:10 AM 38.8°F3.8°C 34.7°F1.5°C 85% 2.3 mph NNW3.7 kmh NNW 3.5 mph5.6 kmh 29.41 in995.9 mb - 0.00 in0.0 mm 0.00 in0.0 mm